Time;durP1;ratioP1;P1;durP2;ratioP2;P2;SDS_P1;SDS_P2;PMS_P1;PMS_P2;Temp;Humidity;BMP_temperature;BMP_pressure;BME280_temperature;BME280_humidity;BME280_pressure;Samples;Min_cycle;Max_cycle;Signal;HPM_P1;HPM_P2
2021/11/03 00:02:06;;;;;;;1.30;1.10;;;6.00;98.00;;;;;;6158385;23;20843;-68
2021/11/03 00:04:35;;;;;;;2.87;2.03;;;5.90;98.00;;;;;;6184655;23;20416;-69
2021/11/03 00:07:02;;;;;;;1.20;1.10;;;5.80;98.00;;;;;;6184870;23;20414;-68
2021/11/03 00:09:29;;;;;;;1.90;1.40;;;5.80;98.00;;;;;;6184240;23;20435;-68
2021/11/03 00:11:58;;;;;;;1.20;1.00;;;5.90;98.00;;;;;;6184629;23;20402;-69
2021/11/03 00:14:25;;;;;;;1.50;1.43;;;6.00;98.00;;;;;;6184883;23;20420;-69
2021/11/03 00:16:52;;;;;;;1.60;1.37;;;6.10;98.00;;;;;;6184629;23;20786;-69
2021/11/03 00:19:19;;;;;;;1.20;1.10;;;5.90;98.00;;;;;;6184715;23;20397;-70
2021/11/03 00:21:46;;;;;;;1.47;1.17;;;5.90;98.00;;;;;;6184369;23;20408;-69
2021/11/03 00:24:13;;;;;;;1.43;1.20;;;6.00;98.00;;;;;;6184505;23;20473;-68
2021/11/03 00:26:40;;;;;;;1.23;1.03;;;6.00;98.00;;;;;;6184484;23;20399;-68
2021/11/03 00:29:08;;;;;;;1.57;1.40;;;6.10;98.00;;;;;;6183886;23;20454;-69
2021/11/03 00:31:35;;;;;;;1.20;1.00;;;6.20;98.00;;;;;;6184098;23;20404;-69
2021/11/03 00:34:02;;;;;;;2.07;1.53;;;6.10;98.00;;;;;;6184392;23;20404;-68
2021/11/03 00:36:29;;;;;;;1.20;1.00;;;6.10;98.00;;;;;;6184165;23;20407;-70
2021/11/03 00:38:56;;;;;;;1.20;1.10;;;6.10;98.00;;;;;;6158007;23;20953;-68
2021/11/03 00:41:23;;;;;;;1.20;1.00;;;6.00;98.00;;;;;;6157778;23;20461;-68
2021/11/03 00:43:53;;;;;;;1.60;1.10;;;6.00;98.00;;;;;;6183886;23;20430;-69
2021/11/03 00:46:21;;;;;;;1.20;1.00;;;5.90;98.00;;;;;;6157086;23;20912;-68
2021/11/03 00:48:48;;;;;;;1.20;1.00;;;5.80;98.00;;;;;;6183735;23;20467;-68
2021/11/03 00:51:16;;;;;;;1.30;1.07;;;6.00;98.00;;;;;;6184278;23;20466;-69
2021/11/03 00:53:43;;;;;;;1.20;1.10;;;6.10;98.00;;;;;;6184235;23;20406;-70
2021/11/03 00:56:10;;;;;;;2.27;1.40;;;6.10;98.00;;;;;;6184437;23;20399;-68
2021/11/03 00:58:37;;;;;;;1.43;1.20;;;6.10;98.00;;;;;;6184162;23;20398;-69
2021/11/03 01:01:04;;;;;;;1.20;1.07;;;6.30;98.00;;;;;;6158051;23;20466;-69
2021/11/03 01:03:33;;;;;;;1.20;1.10;;;6.40;98.00;;;;;;6183860;23;20477;-68
2021/11/03 01:06:00;;;;;;;1.20;1.10;;;6.40;98.00;;;;;;6184122;23;20458;-68
2021/11/03 01:08:27;;;;;;;1.30;1.10;;;6.60;98.00;;;;;;6184141;23;20445;-68
2021/11/03 01:10:54;;;;;;;1.20;1.00;;;6.40;98.00;;;;;;6184478;23;20403;-68
2021/11/03 01:13:23;;;;;;;1.43;1.40;;;6.40;98.00;;;;;;6184451;23;20400;-69
2021/11/03 01:15:52;;;;;;;1.20;1.00;;;6.40;98.00;;;;;;6184005;23;20862;-69
2021/11/03 01:18:19;;;;;;;1.50;1.20;;;6.40;98.00;;;;;;6184315;23;20399;-69
2021/11/03 01:20:48;;;;;;;1.57;1.13;;;6.40;98.00;;;;;;6184366;23;20400;-68
2021/11/03 01:23:15;;;;;;;1.23;1.13;;;6.40;98.00;;;;;;6184373;23;20399;-69
2021/11/03 01:25:42;;;;;;;1.30;1.00;;;6.60;98.00;;;;;;6184231;23;20404;-68
2021/11/03 01:28:10;;;;;;;1.40;1.23;;;6.70;98.00;;;;;;6158255;23;20429;-69
2021/11/03 01:30:37;;;;;;;1.50;1.20;;;6.50;98.00;;;;;;6184265;23;20787;-69
2021/11/03 01:33:04;;;;;;;1.30;1.10;;;6.40;98.00;;;;;;6184167;23;20467;-68
2021/11/03 01:35:32;;;;;;;1.20;1.00;;;6.30;98.00;;;;;;6183656;23;20887;-68
2021/11/03 01:38:01;;;;;;;1.20;1.03;;;6.30;98.00;;;;;;6183814;23;20464;-69
2021/11/03 01:40:31;;;;;;;1.57;1.10;;;6.30;98.00;;;;;;6183947;23;20412;-69
2021/11/03 01:42:58;;;;;;;1.20;1.00;;;6.40;98.00;;;;;;6183942;23;20461;-68
2021/11/03 01:45:27;;;;;;;1.70;1.10;;;6.50;98.00;;;;;;6183602;23;20408;-70
2021/11/03 01:47:56;;;;;;;1.20;0.93;;;6.70;98.00;;;;;;6183488;23;20432;-68
2021/11/03 01:50:31;;;;;;;1.30;1.07;;;6.90;98.00;;;;;;6183527;23;20425;-68
2021/11/03 01:53:05;;;;;;;1.20;1.10;;;7.00;98.00;;;;;;6183513;23;20870;-69
2021/11/03 01:55:33;;;;;;;1.20;1.00;;;7.00;98.00;;;;;;6184047;23;20423;-68
2021/11/03 01:58:05;;;;;;;1.20;1.00;;;7.00;98.00;;;;;;6183756;23;20754;-69
2021/11/03 02:00:36;;;;;;;1.30;1.10;;;6.90;98.00;;;;;;6185028;23;20406;-68
2021/11/03 02:03:06;;;;;;;1.20;1.00;;;6.90;98.00;;;;;;6185734;23;20400;-69
2021/11/03 02:05:34;;;;;;;1.70;1.00;;;6.90;98.00;;;;;;6185762;23;20454;-68
2021/11/03 02:08:05;;;;;;;1.20;1.00;;;7.00;98.00;;;;;;6185211;23;20461;-69
2021/11/03 02:10:35;;;;;;;1.50;1.23;;;7.00;98.00;;;;;;6185800;23;20403;-69
2021/11/03 02:13:04;;;;;;;2.23;1.27;;;7.00;98.00;;;;;;6185626;23;20409;-69
2021/11/03 02:15:33;;;;;;;1.20;1.00;;;7.00;98.00;;;;;;6185365;23;20873;-70
2021/11/03 02:18:00;;;;;;;1.20;1.00;;;6.90;98.00;;;;;;6185609;23;20407;-68
2021/11/03 02:20:29;;;;;;;1.20;1.10;;;6.90;98.00;;;;;;6185576;23;20888;-69
2021/11/03 02:23:10;;;;;;;1.20;1.00;;;7.00;98.00;;;;;;6185549;23;20481;-68
2021/11/03 02:25:45;;;;;;;1.20;1.00;;;6.80;98.00;;;;;;6159147;23;20474;-69
2021/11/03 02:28:12;;;;;;;1.70;1.20;;;6.60;98.00;;;;;;6185602;23;20776;-68
2021/11/03 02:30:40;;;;;;;1.20;0.90;;;6.70;98.00;;;;;;6185626;23;20718;-68
2021/11/03 02:33:13;;;;;;;2.97;1.60;;;6.70;98.00;;;;;;6185510;23;20880;-67
2021/11/03 02:35:41;;;;;;;1.20;1.07;;;6.70;98.00;;;;;;6185401;23;20485;-70
2021/11/03 02:38:08;;;;;;;1.20;1.00;;;6.70;98.00;;;;;;6185663;23;20404;-69
2021/11/03 02:40:44;;;;;;;1.20;1.00;;;6.60;98.00;;;;;;6185923;23;20450;-68
2021/11/03 02:43:21;;;;;;;1.20;1.00;;;6.40;98.00;;;;;;6185960;23;20484;-69
2021/11/03 02:45:52;;;;;;;1.20;1.00;;;6.40;98.00;;;;;;6185027;23;20943;-68
2021/11/03 02:48:20;;;;;;;2.70;1.80;;;6.50;98.00;;;;;;6185382;23;20426;-68
2021/11/03 02:50:56;;;;;;;4.10;1.40;;;6.60;98.00;;;;;;6185270;23;20430;-68
2021/11/03 02:53:23;;;;;;;1.20;1.00;;;6.70;98.00;;;;;;6184807;23;20399;-68
2021/11/03 02:55:52;;;;;;;1.20;1.00;;;6.80;98.00;;;;;;6185402;23;21018;-68
2021/11/03 02:58:19;;;;;;;1.67;1.20;;;6.90;98.00;;;;;;6184838;23;20407;-68
2021/11/03 03:00:47;;;;;;;1.20;1.10;;;7.00;98.00;;;;;;6185210;23;20503;-69
2021/11/03 03:03:14;;;;;;;1.20;1.00;;;7.00;98.00;;;;;;6185319;23;20814;-68
2021/11/03 03:05:49;;;;;;;1.20;1.00;;;6.90;98.00;;;;;;6185079;23;20400;-68
2021/11/03 03:08:16;;;;;;;1.20;1.00;;;6.90;98.00;;;;;;6184976;23;20801;-68
2021/11/03 03:10:43;;;;;;;1.30;1.10;;;6.80;98.00;;;;;;6185019;23;20459;-68
2021/11/03 03:13:12;;;;;;;1.20;1.00;;;6.80;98.00;;;;;;6184984;23;20523;-69
2021/11/03 03:15:39;;;;;;;3.63;1.40;;;6.90;98.00;;;;;;6184935;23;20422;-68
2021/11/03 03:18:06;;;;;;;1.20;1.00;;;6.90;98.00;;;;;;6185077;23;20430;-68
2021/11/03 03:20:33;;;;;;;1.20;1.03;;;6.90;98.00;;;;;;6185224;23;20482;-69
2021/11/03 03:23:00;;;;;;;1.20;1.10;;;6.90;98.00;;;;;;6184935;23;20401;-68
2021/11/03 03:25:29;;;;;;;1.20;1.10;;;7.00;98.00;;;;;;6184722;23;20937;-68
2021/11/03 03:27:59;;;;;;;1.20;1.00;;;7.00;98.00;;;;;;6184551;23;20446;-69
2021/11/03 03:30:27;;;;;;;1.20;1.00;;;7.10;98.00;;;;;;6184945;23;20440;-68
2021/11/03 03:32:54;;;;;;;3.30;1.27;;;7.00;98.00;;;;;;6184628;23;20882;-68
2021/11/03 03:35:22;;;;;;;2.27;1.50;;;6.90;98.00;;;;;;6157563;23;20443;-68
2021/11/03 03:37:50;;;;;;;1.20;1.00;;;6.90;98.00;;;;;;6184940;23;20464;-68
2021/11/03 03:40:17;;;;;;;1.20;1.00;;;6.90;98.00;;;;;;6185243;23;20482;-67
2021/11/03 03:42:44;;;;;;;1.20;1.10;;;7.00;98.00;;;;;;6184762;23;20422;-68
2021/11/03 03:45:13;;;;;;;1.20;0.90;;;7.00;98.00;;;;;;6184763;23;20453;-68
2021/11/03 03:47:41;;;;;;;2.43;1.50;;;7.00;98.00;;;;;;6184527;23;20427;-69
2021/11/03 03:50:09;;;;;;;1.20;1.20;;;6.90;98.00;;;;;;6185103;23;20445;-69
2021/11/03 03:52:36;;;;;;;1.20;1.00;;;7.00;98.00;;;;;;6184546;23;20404;-69
2021/11/03 03:55:06;;;;;;;1.30;1.20;;;7.00;98.00;;;;;;6184844;23;20400;-68
2021/11/03 03:57:33;;;;;;;1.73;1.50;;;7.10;98.00;;;;;;6185129;23;20486;-68
2021/11/03 04:00:02;;;;;;;1.20;1.00;;;7.10;98.00;;;;;;6184713;23;20396;-68
2021/11/03 04:02:30;;;;;;;1.20;1.00;;;7.00;98.00;;;;;;6184094;23;20427;-68
2021/11/03 04:04:58;;;;;;;1.20;0.90;;;7.10;98.00;;;;;;6158776;23;20411;-68
2021/11/03 04:07:26;;;;;;;2.30;1.23;;;6.90;98.00;;;;;;6184328;23;20399;-69
2021/11/03 04:09:53;;;;;;;1.47;1.27;;;6.80;98.00;;;;;;6184476;23;20494;-69
2021/11/03 04:12:20;;;;;;;1.20;1.20;;;6.70;98.00;;;;;;6184329;23;20827;-68
2021/11/03 04:14:47;;;;;;;1.20;1.00;;;6.70;98.00;;;;;;6183945;23;20407;-68
2021/11/03 04:17:15;;;;;;;1.20;1.00;;;6.80;98.00;;;;;;6184603;23;20402;-69
2021/11/03 04:19:42;;;;;;;1.50;1.20;;;6.80;98.00;;;;;;6184500;23;20396;-69
2021/11/03 04:22:10;;;;;;;1.20;1.00;;;6.90;98.00;;;;;;6183342;23;20403;-69
2021/11/03 04:24:37;;;;;;;1.20;1.00;;;6.90;98.00;;;;;;6183599;23;20695;-68
2021/11/03 04:27:06;;;;;;;1.40;1.20;;;6.90;98.00;;;;;;6183789;23;20463;-68
2021/11/03 04:29:33;;;;;;;1.30;1.10;;;7.10;98.00;;;;;;6157895;23;20453;-68
2021/11/03 04:32:00;;;;;;;1.37;1.33;;;7.10;98.00;;;;;;6184262;23;20996;-68
2021/11/03 04:34:27;;;;;;;1.20;1.20;;;7.10;98.00;;;;;;6184046;23;20424;-69
2021/11/03 04:36:55;;;;;;;1.63;1.43;;;7.20;98.00;;;;;;6184335;23;20455;-68
2021/11/03 04:39:24;;;;;;;2.00;1.30;;;7.30;98.00;;;;;;6184305;23;20391;-68
2021/11/03 04:41:51;;;;;;;1.50;1.40;;;7.20;98.00;;;;;;6184000;23;20887;-68
2021/11/03 04:44:18;;;;;;;2.30;1.33;;;7.20;98.00;;;;;;6184109;23;20866;-68
2021/11/03 04:46:45;;;;;;;1.20;1.00;;;7.10;98.00;;;;;;6153137;23;20931;-68
2021/11/03 04:49:16;;;;;;;1.20;1.00;;;7.10;98.00;;;;;;6154233;23;21020;-69
2021/11/03 04:51:43;;;;;;;1.20;1.10;;;7.20;98.00;;;;;;6152415;23;20718;-69
2021/11/03 04:54:11;;;;;;;1.30;1.20;;;7.20;98.00;;;;;;6154446;23;20397;-69
2021/11/03 04:56:40;;;;;;;1.60;1.20;;;7.10;98.00;;;;;;6154625;23;20976;-69
2021/11/03 04:59:07;;;;;;;1.20;1.00;;;7.10;98.00;;;;;;6153087;23;20473;-70
2021/11/03 05:01:35;;;;;;;1.20;1.10;;;7.20;98.00;;;;;;6154532;23;20453;-68
2021/11/03 05:04:02;;;;;;;1.20;1.10;;;7.30;98.00;;;;;;6154222;23;20460;-69
2021/11/03 05:06:34;;;;;;;1.20;1.00;;;7.10;98.00;;;;;;6154693;23;20404;-69
2021/11/03 05:09:01;;;;;;;1.70;1.13;;;7.10;98.00;;;;;;6154347;23;20857;-68
2021/11/03 05:11:28;;;;;;;1.20;1.00;;;6.90;98.00;;;;;;6154633;23;20406;-68
2021/11/03 05:13:57;;;;;;;1.30;1.10;;;6.90;98.00;;;;;;6154761;23;20458;-69
2021/11/03 05:16:27;;;;;;;1.30;1.10;;;6.80;98.00;;;;;;6154482;23;20491;-68
2021/11/03 05:18:55;;;;;;;1.70;1.20;;;6.80;98.00;;;;;;6154168;23;20461;-68
2021/11/03 05:21:22;;;;;;;1.47;1.30;;;6.80;98.00;;;;;;6154369;23;20401;-69
2021/11/03 05:23:50;;;;;;;1.17;1.00;;;6.70;98.00;;;;;;6154406;23;20866;-68
2021/11/03 05:26:21;;;;;;;1.20;1.00;;;6.70;98.00;;;;;;6154466;23;20419;-68
2021/11/03 05:28:52;;;;;;;1.40;1.37;;;6.70;98.00;;;;;;6154437;23;20459;-69
2021/11/03 05:31:21;;;;;;;1.10;0.90;;;6.60;98.00;;;;;;6153869;23;20456;-68
2021/11/03 05:33:49;;;;;;;1.20;0.97;;;6.70;98.00;;;;;;6154999;23;20404;-68
2021/11/03 05:36:18;;;;;;;1.23;1.17;;;6.80;98.00;;;;;;6156356;23;20404;-68
2021/11/03 05:38:46;;;;;;;1.20;1.00;;;6.80;98.00;;;;;;6156120;23;20703;-68
2021/11/03 05:41:13;;;;;;;3.10;1.70;;;6.80;98.00;;;;;;6155840;23;20409;-69
2021/11/03 05:43:41;;;;;;;1.20;1.00;;;6.90;98.00;;;;;;6156064;23;20460;-69
2021/11/03 05:46:08;;;;;;;1.20;1.10;;;6.90;98.00;;;;;;6156066;23;20419;-68
2021/11/03 05:48:41;;;;;;;1.63;1.10;;;6.90;98.00;;;;;;6185135;23;20998;-68
2021/11/03 05:51:09;;;;;;;1.20;1.20;;;6.90;98.00;;;;;;6185806;23;20437;-68
2021/11/03 05:53:38;;;;;;;1.20;1.10;;;6.90;98.00;;;;;;6185984;23;20480;-68
2021/11/03 05:56:06;;;;;;;1.70;1.20;;;7.00;98.00;;;;;;6185858;23;20410;-68
2021/11/03 05:58:35;;;;;;;1.20;1.10;;;7.00;98.00;;;;;;6185622;23;20466;-68
2021/11/03 06:01:02;;;;;;;1.57;1.40;;;7.00;98.00;;;;;;6186043;23;20922;-69
2021/11/03 06:03:29;;;;;;;1.20;1.00;;;7.00;98.00;;;;;;6185660;23;20479;-69
2021/11/03 06:05:58;;;;;;;1.30;1.20;;;7.10;98.00;;;;;;6186011;23;20722;-69
2021/11/03 06:08:25;;;;;;;2.63;1.10;;;7.20;98.00;;;;;;6185477;23;20407;-69
2021/11/03 06:10:57;;;;;;;1.20;0.97;;;7.30;98.00;;;;;;6185757;23;20874;-69
2021/11/03 06:13:24;;;;;;;1.30;1.10;;;7.40;98.00;;;;;;6185286;23;20436;-69
2021/11/03 06:15:51;;;;;;;1.20;1.00;;;7.30;98.00;;;;;;6185519;23;20418;-69
2021/11/03 06:18:18;;;;;;;1.20;1.00;;;7.20;98.00;;;;;;6185474;23;20415;-69
2021/11/03 06:20:46;;;;;;;1.40;1.13;;;7.20;98.00;;;;;;6185823;23;20466;-69
2021/11/03 06:23:14;;;;;;;1.20;1.00;;;7.10;98.00;;;;;;6185397;23;20419;-69
2021/11/03 06:25:42;;;;;;;1.30;1.10;;;7.00;98.00;;;;;;6159891;23;20519;-69
2021/11/03 06:28:10;;;;;;;1.20;1.00;;;7.10;98.00;;;;;;6159777;23;20418;-69
2021/11/03 06:30:38;;;;;;;1.30;1.10;;;7.10;98.00;;;;;;6160045;23;20799;-68
2021/11/03 06:33:06;;;;;;;1.20;1.10;;;7.20;98.00;;;;;;6185687;23;20434;-69
2021/11/03 06:35:35;;;;;;;1.57;1.10;;;7.10;98.00;;;;;;6185516;23;20916;-69
2021/11/03 06:38:03;;;;;;;1.20;1.10;;;7.10;98.00;;;;;;6184962;23;20404;-69
2021/11/03 06:40:32;;;;;;;1.20;1.00;;;7.00;98.00;;;;;;6158756;23;20430;-69
2021/11/03 06:43:00;;;;;;;1.40;1.00;;;6.90;98.00;;;;;;6185193;23;20471;-69
2021/11/03 06:45:27;;;;;;;1.50;1.20;;;6.90;98.00;;;;;;6184426;23;20403;-69
2021/11/03 06:47:55;;;;;;;1.30;1.10;;;7.00;98.00;;;;;;6185036;23;20794;-69
2021/11/03 06:50:27;;;;;;;1.17;0.90;;;7.20;98.00;;;;;;6182468;23;20494;-70
2021/11/03 06:52:58;;;;;;;1.20;1.00;;;7.40;98.00;;;;;;6185383;23;20395;-70
2021/11/03 06:55:26;;;;;;;1.20;1.17;;;7.40;98.00;;;;;;6184800;23;20444;-69
2021/11/03 06:57:56;;;;;;;1.20;1.03;;;7.60;98.00;;;;;;6185360;23;20400;-69
2021/11/03 07:00:28;;;;;;;2.17;2.07;;;7.70;98.00;;;;;;6185048;23;20470;-69
2021/11/03 07:02:55;;;;;;;1.33;1.10;;;7.60;98.00;;;;;;6185320;23;20395;-69
2021/11/03 07:05:23;;;;;;;1.30;1.17;;;7.60;98.00;;;;;;6184807;23;20458;-69
2021/11/03 07:07:50;;;;;;;1.20;1.00;;;7.60;98.00;;;;;;6185174;23;20416;-69
2021/11/03 07:10:21;;;;;;;1.30;1.20;;;7.60;98.00;;;;;;6184840;23;20434;-69
2021/11/03 07:12:48;;;;;;;1.20;1.10;;;7.50;98.00;;;;;;6185163;23;20402;-70
2021/11/03 07:15:17;;;;;;;1.20;1.00;;;7.50;98.00;;;;;;6158911;23;20405;-70
2021/11/03 07:17:45;;;;;;;1.20;1.00;;;7.40;98.00;;;;;;6184677;23;20483;-70
2021/11/03 07:20:12;;;;;;;1.70;1.10;;;7.40;98.00;;;;;;6184749;23;20399;-69
2021/11/03 07:22:39;;;;;;;1.20;1.00;;;7.50;98.00;;;;;;6185170;23;20432;-70
2021/11/03 07:25:08;;;;;;;1.20;1.00;;;7.40;98.00;;;;;;6184853;23;20402;-69
2021/11/03 07:27:35;;;;;;;1.10;1.00;;;7.40;98.00;;;;;;6185170;23;20477;-69
2021/11/03 07:30:02;;;;;;;1.20;1.00;;;7.40;98.00;;;;;;6184638;23;20432;-69
2021/11/03 07:32:30;;;;;;;1.50;1.10;;;7.40;98.00;;;;;;6184520;23;20408;-69
2021/11/03 07:34:57;;;;;;;1.20;1.10;;;7.50;98.00;;;;;;6184642;23;20400;-69
2021/11/03 07:37:24;;;;;;;1.20;1.00;;;7.60;98.00;;;;;;6185173;23;20460;-69
2021/11/03 07:39:51;;;;;;;1.20;1.00;;;7.70;98.00;;;;;;6184004;23;20412;-69
2021/11/03 07:42:19;;;;;;;1.20;1.10;;;7.60;98.00;;;;;;6184704;23;20866;-69
2021/11/03 07:44:45;;;;;;;1.27;1.00;;;7.70;98.00;;;;;;6184905;23;20402;-69
2021/11/03 07:47:20;;;;;;;1.50;1.20;;;7.80;98.00;;;;;;6184816;23;20423;-69
2021/11/03 07:49:49;;;;;;;1.20;1.10;;;7.90;98.00;;;;;;6184408;23;20412;-69
2021/11/03 07:52:16;;;;;;;1.40;1.10;;;7.90;98.00;;;;;;6184757;23;20451;-68
2021/11/03 07:54:43;;;;;;;1.30;1.10;;;8.10;98.00;;;;;;6184304;23;20487;-69
2021/11/03 07:57:11;;;;;;;1.47;1.10;;;8.10;98.00;;;;;;6184839;23;20746;-70
2021/11/03 07:59:38;;;;;;;1.10;1.00;;;8.10;98.00;;;;;;6184096;23;20426;-70
2021/11/03 08:02:09;;;;;;;1.20;1.00;;;8.20;98.00;;;;;;6184469;23;20464;-70
2021/11/03 08:04:36;;;;;;;1.20;1.10;;;8.10;98.00;;;;;;6184273;23;20432;-70
2021/11/03 08:07:05;;;;;;;3.00;1.30;;;8.10;98.00;;;;;;6181932;23;20852;-72
2021/11/03 08:09:32;;;;;;;1.63;1.13;;;8.00;98.00;;;;;;6183224;23;20396;-73
2021/11/03 08:12:01;;;;;;;1.20;1.10;;;8.20;98.00;;;;;;6183547;23;20432;-73
2021/11/03 08:14:31;;;;;;;1.20;1.10;;;8.50;98.00;;;;;;6183662;23;20403;-73
2021/11/03 08:17:02;;;;;;;1.50;1.30;;;8.60;98.00;;;;;;6183248;23;20460;-73
2021/11/03 08:19:37;;;;;;;1.20;1.00;;;8.80;98.00;;;;;;6183456;23;20402;-72
2021/11/03 08:22:06;;;;;;;1.73;1.27;;;8.90;98.00;;;;;;6183115;23;20415;-70
2021/11/03 08:24:34;;;;;;;1.20;1.00;;;8.80;98.00;;;;;;6183532;23;20410;-71
2021/11/03 08:27:01;;;;;;;1.20;1.00;;;8.70;98.00;;;;;;6183209;23;20464;-73
2021/11/03 08:29:29;;;;;;;1.30;1.23;;;8.50;98.00;;;;;;6183109;23;20474;-71
2021/11/03 08:31:58;;;;;;;1.40;1.27;;;8.40;98.00;;;;;;6183340;23;21009;-70
2021/11/03 08:34:30;;;;;;;1.20;1.00;;;8.30;98.00;;;;;;6183213;23;20459;-71
2021/11/03 08:37:00;;;;;;;1.20;1.00;;;8.20;98.00;;;;;;6183030;23;20548;-71
2021/11/03 08:39:29;;;;;;;1.20;1.00;;;8.10;98.00;;;;;;6183292;23;21000;-70
2021/11/03 08:41:56;;;;;;;4.57;1.40;;;8.10;98.00;;;;;;6183147;23;20396;-70
2021/11/03 08:44:43;;;;;;;1.20;1.00;;;8.20;98.00;;;;;;6183072;23;20406;-72
2021/11/03 08:47:10;;;;;;;1.40;1.20;;;8.30;98.00;;;;;;6151519;23;20469;-69
2021/11/03 08:49:37;;;;;;;1.53;1.30;;;8.40;98.00;;;;;;6152373;23;20425;-73
2021/11/03 08:52:05;;;;;;;1.40;1.20;;;8.40;98.00;;;;;;6153340;23;20431;-72
2021/11/03 08:54:36;;;;;;;1.30;1.30;;;8.50;98.00;;;;;;6153480;23;20457;-73
2021/11/03 08:57:03;;;;;;;1.47;1.30;;;8.60;98.00;;;;;;6153690;23;20407;-73
2021/11/03 08:59:30;;;;;;;1.50;1.20;;;8.80;98.00;;;;;;6151828;23;20402;-74
2021/11/03 09:01:57;;;;;;;1.20;1.13;;;8.70;98.00;;;;;;6153448;23;20466;-72
2021/11/03 09:04:25;;;;;;;1.20;1.20;;;8.70;98.00;;;;;;6153600;23;20803;-69
2021/11/03 09:06:52;;;;;;;1.20;1.10;;;8.80;98.00;;;;;;6153166;23;20513;-72
2021/11/03 09:09:19;;;;;;;1.20;1.10;;;8.90;98.00;;;;;;6154537;23;20400;-69
2021/11/03 09:11:51;;;;;;;1.30;1.20;;;9.20;98.00;;;;;;6154930;23;20956;-71
2021/11/03 09:14:21;;;;;;;1.60;1.20;;;9.30;98.00;;;;;;6153754;23;20425;-71
2021/11/03 09:16:51;;;;;;;1.57;1.10;;;9.40;98.00;;;;;;6154449;23;20425;-70
2021/11/03 09:19:18;;;;;;;1.20;0.93;;;9.50;98.00;;;;;;6152898;23;20433;-71
2021/11/03 09:21:46;;;;;;;1.37;1.10;;;9.60;98.00;;;;;;6155336;23;20447;-70
2021/11/03 09:24:13;;;;;;;1.20;1.00;;;9.70;98.00;;;;;;6155059;23;20403;-71
2021/11/03 09:26:43;;;;;;;1.40;1.10;;;9.80;98.00;;;;;;6155160;23;20910;-72
2021/11/03 09:29:12;;;;;;;1.50;1.20;;;9.70;98.00;;;;;;6155252;23;20778;-72
2021/11/03 09:31:39;;;;;;;1.20;1.10;;;9.80;98.00;;;;;;6154942;23;20431;-73
2021/11/03 09:34:08;;;;;;;1.33;1.13;;;9.80;98.00;;;;;;6155385;23;20480;-70
2021/11/03 09:36:41;;;;;;;1.27;1.17;;;9.70;98.00;;;;;;6155419;23;20397;-72
2021/11/03 09:39:08;;;;;;;1.20;1.00;;;9.90;98.00;;;;;;6154960;23;20408;-70
2021/11/03 09:41:40;;;;;;;1.63;1.27;;;10.00;98.00;;;;;;6155050;23;20431;-70
2021/11/03 09:44:17;;;;;;;1.50;1.10;;;10.00;98.00;;;;;;6154908;23;20454;-70
2021/11/03 09:46:48;;;;;;;1.20;1.00;;;10.00;98.00;;;;;;6162286;23;20439;-71
2021/11/03 09:49:20;;;;;;;1.77;1.20;;;10.00;98.00;;;;;;6183933;23;20453;-72
2021/11/03 09:51:52;;;;;;;1.73;1.00;;;10.00;98.00;;;;;;6184780;23;20437;-70
2021/11/03 09:54:24;;;;;;;1.20;1.00;;;10.00;98.00;;;;;;6185207;23;20412;-71
2021/11/03 09:56:57;;;;;;;1.20;1.07;;;10.10;98.00;;;;;;6184818;23;20409;-70
2021/11/03 09:59:35;;;;;;;1.20;1.00;;;10.20;98.00;;;;;;6184403;23;20435;-71
2021/11/03 10:02:18;;;;;;;1.20;1.00;;;10.30;98.00;;;;;;6184150;23;20889;-70
2021/11/03 10:05:17;;;;;;;1.20;1.00;;;10.40;98.00;;;;;;6183593;23;20444;-73
2021/11/03 10:07:51;;;;;;;1.20;1.10;;;10.40;98.00;;;;;;6183887;23;20406;-70
2021/11/03 10:10:25;;;;;;;1.40;1.17;;;10.40;98.00;;;;;;6184204;23;20459;-68
2021/11/03 10:12:52;;;;;;;1.50;1.17;;;10.30;98.00;;;;;;6184920;23;20859;-70
2021/11/03 10:15:23;;;;;;;1.73;1.57;;;10.30;98.00;;;;;;6184930;23;20405;-70
2021/11/03 10:18:15;;;;;;;1.50;1.10;;;10.30;98.00;;;;;;6184830;23;20415;-70
2021/11/03 10:20:47;;;;;;;1.23;1.07;;;10.50;98.00;;;;;;6183673;23;21246;-72
2021/11/03 10:23:22;;;;;;;1.20;1.10;;;10.60;98.00;;;;;;6184692;23;20431;-71
2021/11/03 10:26:05;;;;;;;1.20;1.00;;;10.60;98.00;;;;;;6184189;23;20416;-69
2021/11/03 10:28:40;;;;;;;1.40;1.10;;;10.70;98.00;;;;;;6184498;23;20450;-70
2021/11/03 10:31:22;;;;;;;1.50;1.10;;;10.70;98.00;;;;;;6184657;23;20426;-71
2021/11/03 10:33:58;;;;;;;1.20;1.10;;;10.70;98.00;;;;;;6184677;23;20883;-77
2021/11/03 10:36:29;;;;;;;1.20;1.03;;;10.70;98.00;;;;;;6184911;23;20399;-71
2021/11/03 10:39:00;;;;;;;1.50;1.30;;;10.80;98.00;;;;;;6184379;23;20410;-71
2021/11/03 10:41:30;;;;;;;1.20;0.93;;;10.80;98.00;;;;;;6184085;23;20400;-71
2021/11/03 10:44:02;;;;;;;1.40;1.10;;;10.80;98.00;;;;;;6183966;23;20407;-72
2021/11/03 10:46:33;;;;;;;1.20;1.00;;;10.70;98.00;;;;;;6158792;23;20400;-72
2021/11/03 10:49:40;;;;;;;1.20;1.10;;;10.70;98.00;;;;;;6184240;23;20856;-72
2021/11/03 10:52:19;;;;;;;1.20;0.97;;;10.70;98.00;;;;;;6182529;23;20446;-71
2021/11/03 10:54:51;;;;;;;1.20;1.03;;;10.70;98.00;;;;;;6184473;23;20408;-70
2021/11/03 10:57:32;;;;;;;1.60;1.10;;;10.70;98.00;;;;;;6184408;23;20450;-72
2021/11/03 11:00:18;;;;;;;1.40;1.30;;;10.70;98.00;;;;;;6184035;23;20463;-70
2021/11/03 11:02:55;;;;;;;1.20;0.90;;;10.70;98.00;;;;;;6184231;23;20496;-70
2021/11/03 11:05:25;;;;;;;1.20;0.90;;;10.80;98.00;;;;;;6184131;23;20412;-70
2021/11/03 11:07:58;;;;;;;1.20;1.00;;;10.90;98.00;;;;;;6184095;23;20405;-70
2021/11/03 11:10:33;;;;;;;1.20;1.00;;;10.90;98.00;;;;;;6184268;23;20408;-71
2021/11/03 11:13:03;;;;;;;1.20;1.10;;;11.00;98.00;;;;;;6183853;23;20998;-71
2021/11/03 11:15:39;;;;;;;1.20;1.10;;;11.10;98.00;;;;;;6183787;23;20433;-71
2021/11/03 11:18:37;;;;;;;1.20;0.90;;;11.10;98.00;;;;;;6183928;23;20404;-71
2021/11/03 11:21:13;;;;;;;1.20;1.10;;;11.10;98.00;;;;;;6202176;23;20459;-70
2021/11/03 11:23:45;;;;;;;1.20;1.03;;;11.10;98.00;;;;;;6184871;23;20408;-71
2021/11/03 11:26:18;;;;;;;1.20;1.00;;;11.10;98.00;;;;;;6184510;23;20480;-70
2021/11/03 11:28:52;;;;;;;1.83;1.23;;;11.20;98.00;;;;;;6183504;23;20403;-70
2021/11/03 11:31:25;;;;;;;1.20;1.00;;;11.10;98.00;;;;;;6183648;23;21017;-70
2021/11/03 11:34:03;;;;;;;1.40;1.10;;;11.00;98.00;;;;;;6183632;23;20406;-71
2021/11/03 11:36:38;;;;;;;1.30;1.20;;;11.00;98.00;;;;;;6183846;23;20399;-70
2021/11/03 11:39:19;;;;;;;1.20;1.00;;;10.90;98.00;;;;;;6183546;23;20398;-70
2021/11/03 11:42:00;;;;;;;1.20;1.00;;;10.90;98.00;;;;;;6184108;23;20458;-71
2021/11/03 11:44:29;;;;;;;1.20;1.00;;;10.80;98.00;;;;;;6183662;23;20403;-71
2021/11/03 11:47:00;;;;;;;1.50;1.30;;;10.90;98.00;;;;;;6183324;23;20964;-72
2021/11/03 11:49:32;;;;;;;1.60;1.10;;;10.90;98.00;;;;;;6182685;23;20470;-70
2021/11/03 11:52:03;;;;;;;1.20;1.00;;;10.80;98.00;;;;;;6183641;23;20432;-71
2021/11/03 11:54:38;;;;;;;1.20;1.00;;;10.80;98.00;;;;;;6183192;23;20728;-71
2021/11/03 11:57:25;;;;;;;1.27;1.13;;;10.80;98.00;;;;;;6183548;23;20467;-72
2021/11/03 12:00:25;;;;;;;1.20;1.00;;;10.90;98.00;;;;;;6183024;23;20399;-71
2021/11/03 12:03:04;;;;;;;1.20;0.90;;;10.90;98.00;;;;;;6172013;23;20509;-71
2021/11/03 12:05:56;;;;;;;4.40;1.27;;;11.00;98.00;;;;;;6183582;23;20474;-73
2021/11/03 12:08:28;;;;;;;1.20;1.00;;;11.00;98.00;;;;;;6183390;23;20419;-70
2021/11/03 12:11:23;;;;;;;1.20;1.00;;;11.20;98.00;;;;;;6183520;23;20853;-71
2021/11/03 12:14:25;;;;;;;1.20;1.00;;;11.40;98.00;;;;;;6098555;23;20421;-71
2021/11/03 12:17:35;;;;;;;1.30;1.10;;;11.40;98.00;;;;;;6183379;23;20480;-71
2021/11/03 12:20:23;;;;;;;1.20;1.00;;;11.30;98.00;;;;;;6183077;23;20422;-71
2021/11/03 12:22:56;;;;;;;1.50;1.03;;;11.20;98.00;;;;;;6183152;23;20422;-71
2021/11/03 12:25:54;;;;;;;1.20;1.20;;;11.30;98.00;;;;;;6183311;23;20454;-72
2021/11/03 12:28:54;;;;;;;1.53;1.10;;;11.10;98.00;;;;;;6181441;23;20443;-69
2021/11/03 12:31:32;;;;;;;1.20;1.00;;;11.00;98.00;;;;;;6183171;23;20502;-70
2021/11/03 12:34:33;;;;;;;2.80;1.30;;;11.00;98.00;;;;;;6183691;23;20798;-70
2021/11/03 12:37:24;;;;;;;1.20;1.00;;;11.00;98.00;;;;;;6034412;23;20439;-71
2021/11/03 12:39:58;;;;;;;2.50;1.40;;;11.10;98.00;;;;;;6034605;23;20990;-71
2021/11/03 12:42:31;;;;;;;1.20;1.00;;;11.10;98.00;;;;;;6132862;23;20474;-71
2021/11/03 12:45:12;;;;;;;1.90;1.27;;;11.10;98.00;;;;;;6183122;23;20863;-71
2021/11/03 12:47:49;;;;;;;1.30;1.10;;;11.20;98.00;;;;;;6183167;23;20762;-70
2021/11/03 12:50:18;;;;;;;1.20;1.10;;;11.30;98.00;;;;;;6184266;23;20406;-71
2021/11/03 12:52:47;;;;;;;1.50;1.10;;;11.30;98.00;;;;;;6183985;23;20798;-70
2021/11/03 12:55:24;;;;;;;1.30;1.27;;;11.30;98.00;;;;;;6184121;23;20875;-71
2021/11/03 12:57:52;;;;;;;1.20;1.00;;;11.20;98.00;;;;;;6184093;23;20426;-72
2021/11/03 13:00:22;;;;;;;1.20;1.20;;;11.10;98.00;;;;;;6158134;23;20397;-71
2021/11/03 13:02:58;;;;;;;3.27;1.20;;;11.20;98.00;;;;;;6184242;23;20411;-72
2021/11/03 13:05:27;;;;;;;1.20;1.00;;;11.20;98.00;;;;;;6183865;23;20406;-70
2021/11/03 13:07:55;;;;;;;1.40;1.17;;;11.10;98.00;;;;;;6184531;23;20436;-71
2021/11/03 13:10:28;;;;;;;2.50;1.10;;;11.10;98.00;;;;;;6183978;23;20398;-71
2021/11/03 13:13:02;;;;;;;1.20;1.00;;;11.20;98.00;;;;;;6183864;23;21124;-71
2021/11/03 13:15:32;;;;;;;1.30;1.23;;;11.30;98.00;;;;;;6184128;23;20406;-69